createdAt,value
2024-03-07T00:00:16.125Z,55.50
2024-03-07T00:02:44.886Z,55.50
2024-03-07T00:05:13.976Z,55.50
2024-03-07T00:07:42.460Z,55.50
2024-03-07T00:10:11.845Z,55.50
2024-03-07T00:12:42.520Z,55.50
2024-03-07T00:15:12.387Z,55.50
2024-03-07T00:17:41.086Z,55.50
2024-03-07T00:20:15.390Z,55.50
2024-03-07T00:22:44.150Z,55.50
2024-03-07T00:25:15.706Z,55.50
2024-03-07T00:27:46.480Z,55.50
2024-03-07T00:30:19.590Z,55.50
2024-03-07T00:32:48.544Z,55.50
2024-03-07T00:35:17.243Z,55.50
2024-03-07T00:37:45.593Z,55.40
2024-03-07T00:40:14.229Z,55.50
2024-03-07T00:42:42.163Z,55.50
2024-03-07T00:45:12.170Z,55.50
2024-03-07T00:47:40.667Z,55.50
2024-03-07T00:50:10.335Z,55.50
2024-03-07T00:52:38.979Z,55.50
2024-03-07T00:55:09.549Z,55.50
2024-03-07T00:57:39.997Z,55.50
2024-03-07T01:00:15.021Z,55.50
2024-03-07T01:02:45.527Z,55.50
2024-03-07T01:05:14.833Z,55.50
2024-03-07T01:07:44.373Z,55.50
2024-03-07T01:10:12.623Z,55.40
2024-03-07T01:12:40.829Z,55.30
2024-03-07T01:15:09.990Z,55.40
2024-03-07T01:17:38.014Z,55.30
2024-03-07T01:20:10.184Z,55.40
2024-03-07T01:22:38.305Z,55.40
2024-03-07T01:25:07.488Z,55.30
2024-03-07T01:27:35.999Z,55.30
2024-03-07T01:30:04.110Z,55.40
2024-03-07T01:32:32.452Z,55.40
2024-03-07T01:35:00.546Z,55.30
2024-03-07T01:37:29.838Z,55.30
2024-03-07T01:39:57.785Z,55.30
2024-03-07T01:42:26.124Z,55.30
2024-03-07T01:44:54.072Z,55.30
2024-03-07T01:47:22.461Z,55.30
2024-03-07T01:49:50.785Z,55.30
2024-03-07T01:52:19.721Z,55.30
2024-03-07T01:54:50.178Z,55.30
2024-03-07T01:57:19.852Z,55.30
2024-03-07T01:59:48.731Z,55.30
2024-03-07T02:02:16.808Z,55.30
2024-03-07T02:04:44.783Z,55.30
2024-03-07T02:07:13.284Z,55.30
2024-03-07T02:09:41.200Z,55.30
2024-03-07T02:12:11.148Z,55.30
2024-03-07T02:14:39.273Z,55.40
2024-03-07T02:17:07.825Z,55.30
2024-03-07T02:19:35.768Z,55.30
2024-03-07T02:22:05.040Z,55.30
2024-03-07T02:24:33.438Z,55.30
2024-03-07T02:27:01.517Z,55.40
2024-03-07T02:29:29.529Z,55.30
2024-03-07T02:31:57.819Z,55.20
2024-03-07T02:34:27.607Z,55.30
2024-03-07T02:36:55.848Z,55.30
2024-03-07T02:39:25.993Z,55.20
2024-03-07T02:41:54.111Z,55.20
2024-03-07T02:44:22.076Z,55.30
2024-03-07T02:46:50.033Z,55.30
2024-03-07T02:49:17.995Z,55.30
2024-03-07T02:51:46.568Z,55.20
2024-03-07T02:54:14.512Z,55.20
2024-03-07T02:56:43.871Z,55.20
2024-03-07T02:59:12.671Z,55.20
2024-03-07T03:01:40.732Z,55.90
2024-03-07T03:04:08.818Z,55.20
2024-03-07T03:06:36.742Z,55.40
2024-03-07T03:09:06.312Z,55.20
2024-03-07T03:11:35.249Z,55.20
2024-03-07T03:14:05.011Z,55.20
2024-03-07T03:16:43.707Z,55.20
2024-03-07T03:19:16.374Z,55.20
2024-03-07T03:21:44.811Z,55.20
2024-03-07T03:24:12.798Z,55.20
2024-03-07T03:26:41.671Z,55.20
2024-03-07T03:29:12.941Z,55.20
2024-03-07T03:31:40.990Z,55.20
2024-03-07T03:34:11.008Z,55.20
2024-03-07T03:36:39.731Z,55.20
2024-03-07T03:39:08.727Z,55.10
2024-03-07T03:41:36.795Z,55.10
2024-03-07T03:44:04.985Z,55.10
2024-03-07T03:46:34.403Z,55.10
2024-03-07T03:49:02.500Z,55.10
2024-03-07T03:51:31.025Z,55.10
2024-03-07T03:53:59.020Z,55.10
2024-03-07T03:56:27.560Z,55.10
2024-03-07T03:58:55.647Z,55.10
2024-03-07T04:01:24.759Z,55.10
2024-03-07T04:03:54.138Z,55.10
2024-03-07T04:06:22.423Z,55.10
2024-03-07T04:08:50.424Z,55.10
2024-03-07T04:11:18.762Z,55.10
2024-03-07T04:13:47.600Z,55.10
2024-03-07T04:16:16.805Z,55.10
2024-03-07T04:18:45.059Z,55.10
2024-03-07T04:21:14.373Z,55.10
2024-03-07T04:23:42.869Z,55.10
2024-03-07T04:26:10.818Z,55.10
2024-03-07T04:28:38.757Z,55.10
2024-03-07T04:31:06.760Z,55.10
2024-03-07T04:33:34.757Z,55.10
2024-03-07T04:36:04.261Z,55.10
2024-03-07T04:38:33.817Z,55.10
2024-03-07T04:41:01.731Z,55.00
2024-03-07T04:43:29.693Z,55.10
2024-03-07T04:45:57.771Z,55.10
2024-03-07T04:48:25.763Z,55.00
2024-03-07T04:50:53.804Z,55.10
2024-03-07T04:53:21.971Z,55.00
2024-03-07T04:55:51.963Z,55.00
2024-03-07T04:58:20.222Z,55.00
2024-03-07T05:00:48.218Z,55.00
2024-03-07T05:03:16.164Z,55.00
2024-03-07T05:05:44.117Z,55.00
2024-03-07T05:08:13.165Z,55.00
2024-03-07T05:10:43.043Z,55.00
2024-03-07T05:13:12.647Z,55.00
2024-03-07T05:15:41.121Z,55.00
2024-03-07T05:18:09.554Z,54.90
2024-03-07T05:20:37.747Z,55.00
2024-03-07T05:23:06.749Z,54.90
2024-03-07T05:25:35.312Z,54.90
2024-03-07T05:28:03.506Z,54.90
2024-03-07T05:30:34.289Z,54.90
2024-03-07T05:33:03.333Z,54.90
2024-03-07T05:35:31.515Z,54.90
2024-03-07T05:38:01.122Z,54.90
2024-03-07T05:40:29.049Z,54.90
2024-03-07T05:42:57.861Z,54.90
2024-03-07T05:45:25.771Z,54.90
2024-03-07T05:47:55.182Z,54.90
2024-03-07T05:50:23.278Z,54.90
2024-03-07T05:52:51.265Z,54.90
2024-03-07T05:55:20.470Z,54.90
2024-03-07T05:57:48.741Z,54.90
2024-03-07T06:00:28.018Z,54.90
2024-03-07T06:02:58.019Z,54.90
2024-03-07T06:05:26.178Z,54.90
2024-03-07T06:07:54.578Z,54.90
2024-03-07T06:10:25.195Z,54.90
2024-03-07T06:13:05.016Z,54.90
2024-03-07T06:15:39.207Z,54.90
2024-03-07T06:18:09.477Z,54.90
2024-03-07T06:20:38.313Z,54.80
2024-03-07T06:23:06.491Z,54.90
2024-03-07T06:25:38.780Z,54.90
2024-03-07T06:28:12.041Z,54.80
2024-03-07T06:30:41.811Z,54.80
2024-03-07T06:33:11.760Z,54.80
2024-03-07T06:35:40.418Z,54.90
2024-03-07T06:38:09.409Z,54.80
2024-03-07T06:40:37.657Z,54.80
2024-03-07T06:43:07.762Z,54.80
2024-03-07T06:45:36.576Z,54.80
2024-03-07T06:48:06.046Z,54.80
2024-03-07T06:50:38.455Z,54.90
2024-03-07T06:53:09.375Z,54.80
2024-03-07T06:55:38.223Z,54.80
2024-03-07T06:58:06.754Z,54.80
2024-03-07T07:00:37.807Z,54.80
2024-03-07T07:03:07.381Z,54.80
2024-03-07T07:05:37.261Z,54.80
2024-03-07T07:08:07.824Z,54.70
2024-03-07T07:10:36.993Z,54.80
2024-03-07T07:13:05.855Z,54.70
2024-03-07T07:15:34.287Z,54.80
2024-03-07T07:18:03.413Z,54.80
2024-03-07T07:20:31.984Z,54.80
2024-03-07T07:23:03.214Z,55.30
2024-03-07T07:25:31.271Z,54.80
2024-03-07T07:27:59.246Z,54.70
2024-03-07T07:30:28.142Z,54.70
2024-03-07T07:32:56.544Z,54.70
2024-03-07T07:35:25.174Z,54.70
2024-03-07T07:37:54.953Z,54.80
2024-03-07T07:40:27.606Z,54.70
2024-03-07T07:42:55.877Z,54.70
2024-03-07T07:45:25.031Z,54.70
2024-03-07T07:47:54.186Z,54.70
2024-03-07T07:50:23.607Z,54.80
2024-03-07T07:52:54.405Z,54.70
2024-03-07T07:55:25.305Z,54.60
2024-03-07T07:57:55.165Z,54.80
2024-03-07T08:00:24.773Z,54.70
2024-03-07T08:02:56.892Z,54.70
2024-03-07T08:05:26.363Z,54.70
2024-03-07T08:07:55.775Z,54.70
2024-03-07T08:10:26.900Z,54.60
2024-03-07T08:12:54.837Z,54.60
2024-03-07T08:15:22.823Z,54.70
2024-03-07T08:17:52.712Z,54.70
2024-03-07T08:20:22.222Z,54.60
2024-03-07T08:22:53.685Z,54.60
2024-03-07T08:25:24.316Z,54.60
2024-03-07T08:27:54.714Z,54.60
2024-03-07T08:30:23.892Z,54.60
2024-03-07T08:32:53.354Z,54.60
2024-03-07T08:35:22.121Z,54.60
2024-03-07T08:37:54.230Z,54.60
2024-03-07T08:40:26.624Z,54.70
2024-03-07T08:42:58.759Z,54.60
2024-03-07T08:45:27.074Z,54.60
2024-03-07T08:47:56.588Z,54.60
2024-03-07T08:50:27.380Z,54.60
2024-03-07T08:52:55.853Z,54.60
2024-03-07T08:55:26.719Z,54.60
2024-03-07T08:57:55.322Z,54.60
2024-03-07T09:00:26.409Z,54.60
2024-03-07T09:02:59.368Z,54.60
2024-03-07T09:05:29.309Z,54.60
2024-03-07T09:07:57.848Z,54.60
2024-03-07T09:10:27.011Z,54.60
2024-03-07T09:12:56.112Z,54.60
2024-03-07T09:15:25.789Z,54.60
2024-03-07T09:17:54.796Z,54.60
2024-03-07T09:20:23.176Z,54.60
2024-03-07T09:22:51.373Z,54.60
2024-03-07T09:25:20.627Z,54.60
2024-03-07T09:27:49.254Z,54.60
2024-03-07T09:30:23.134Z,54.60
2024-03-07T09:32:53.068Z,54.60
2024-03-07T09:35:21.362Z,54.60
2024-03-07T09:37:49.305Z,54.60
2024-03-07T09:40:17.299Z,54.60
2024-03-07T09:42:49.294Z,54.60
2024-03-07T09:45:19.375Z,54.60
2024-03-07T09:47:50.127Z,54.60
2024-03-07T09:50:23.325Z,54.60
2024-03-07T09:52:53.088Z,54.60
2024-03-07T09:55:22.824Z,54.60
2024-03-07T09:57:52.186Z,54.60
2024-03-07T10:00:26.079Z,54.60
2024-03-07T10:03:00.743Z,54.60
2024-03-07T10:05:32.882Z,54.60
2024-03-07T10:08:01.516Z,54.50
2024-03-07T10:10:31.645Z,54.60
2024-03-07T10:13:00.732Z,54.60
2024-03-07T10:15:31.375Z,54.60
2024-03-07T10:18:00.171Z,54.50
2024-03-07T10:20:29.029Z,54.60
2024-03-07T10:22:58.886Z,54.60
2024-03-07T10:25:29.503Z,54.50
2024-03-07T10:27:58.947Z,54.50
2024-03-07T10:30:27.682Z,54.50
2024-03-07T10:33:00.157Z,54.50
2024-03-07T10:35:32.783Z,54.60
2024-03-07T10:38:07.579Z,54.50
2024-03-07T10:40:36.833Z,54.50
2024-03-07T10:43:10.980Z,54.50
2024-03-07T10:45:46.810Z,54.60
2024-03-07T10:48:15.779Z,54.50
2024-03-07T10:50:58.568Z,54.50
2024-03-07T10:53:34.531Z,54.50
2024-03-07T10:56:25.582Z,54.50
2024-03-07T10:59:08.804Z,54.50
2024-03-07T11:01:50.981Z,54.50
2024-03-07T11:04:22.968Z,54.50
2024-03-07T11:06:51.788Z,54.50
2024-03-07T11:09:25.208Z,54.50
2024-03-07T11:11:54.226Z,55.20
2024-03-07T11:14:22.994Z,54.50
2024-03-07T11:16:51.718Z,55.20
2024-03-07T11:19:28.449Z,54.50
2024-03-07T11:21:57.675Z,54.50
2024-03-07T11:24:29.569Z,54.50
2024-03-07T11:26:59.196Z,54.50
2024-03-07T11:29:48.015Z,54.50
2024-03-07T11:32:18.059Z,54.50
2024-03-07T11:34:48.367Z,54.50
2024-03-07T11:37:23.956Z,54.50
2024-03-07T11:39:57.109Z,54.50
2024-03-07T11:42:29.748Z,54.50
2024-03-07T11:44:58.951Z,54.50
2024-03-07T11:47:30.481Z,54.50
2024-03-07T11:49:59.832Z,55.20
2024-03-07T11:52:28.997Z,54.50
2024-03-07T11:55:05.584Z,54.50
2024-03-07T11:57:34.746Z,54.50
2024-03-07T12:00:09.426Z,54.60
2024-03-07T12:02:40.259Z,54.50
2024-03-07T12:05:09.376Z,54.50
2024-03-07T12:07:37.513Z,54.60
2024-03-07T12:10:08.112Z,54.60
2024-03-07T12:12:39.771Z,54.60
2024-03-07T12:15:16.019Z,54.50
2024-03-07T12:17:44.845Z,54.50
2024-03-07T12:20:28.311Z,54.60
2024-03-07T12:22:58.737Z,54.50
2024-03-07T12:25:28.961Z,54.60
2024-03-07T12:28:06.646Z,54.60
2024-03-07T12:30:36.157Z,54.60
2024-03-07T12:33:08.261Z,54.60
2024-03-07T12:35:36.694Z,54.60
2024-03-07T12:38:05.826Z,54.60
2024-03-07T12:40:36.193Z,54.60
2024-03-07T12:43:04.792Z,54.60
2024-03-07T12:45:34.819Z,54.60
2024-03-07T12:48:06.071Z,54.60
2024-03-07T12:50:37.812Z,54.60
2024-03-07T12:53:07.089Z,54.60
2024-03-07T12:55:37.291Z,54.60
2024-03-07T12:58:05.815Z,54.60
2024-03-07T13:00:33.756Z,54.60
2024-03-07T13:03:02.042Z,54.60
2024-03-07T13:05:30.159Z,54.60
2024-03-07T13:07:58.140Z,54.60
2024-03-07T13:10:26.061Z,54.60
2024-03-07T13:12:55.356Z,54.60
2024-03-07T13:15:25.501Z,54.60
2024-03-07T13:17:54.914Z,54.60
2024-03-07T13:20:27.435Z,54.60
2024-03-07T13:22:59.576Z,54.60
2024-03-07T13:25:30.661Z,54.60
2024-03-07T13:28:03.917Z,54.60
2024-03-07T13:30:32.037Z,54.60
2024-03-07T13:33:01.550Z,54.60
2024-03-07T13:35:29.618Z,54.60
2024-03-07T13:37:58.166Z,54.60
2024-03-07T13:40:27.035Z,54.60
2024-03-07T13:42:56.963Z,54.60
2024-03-07T13:45:28.616Z,54.60
2024-03-07T13:47:58.516Z,54.60
2024-03-07T13:50:46.368Z,54.60
2024-03-07T13:53:30.558Z,54.60
2024-03-07T13:56:25.417Z,54.60
2024-03-07T13:59:20.051Z,54.60
2024-03-07T14:02:05.047Z,54.60
2024-03-07T14:05:19.284Z,54.70
2024-03-07T14:08:02.868Z,54.60
2024-03-07T14:11:14.869Z,54.60
2024-03-07T14:13:55.266Z,55.20
2024-03-07T14:16:57.617Z,54.60
2024-03-07T14:20:03.923Z,54.60
2024-03-07T14:22:46.292Z,54.60
2024-03-07T14:25:46.180Z,54.60
2024-03-07T14:28:30.203Z,54.60
2024-03-07T14:30:59.610Z,54.60
2024-03-07T14:33:34.460Z,54.60
2024-03-07T14:36:11.488Z,54.70
2024-03-07T14:38:50.277Z,54.60
2024-03-07T14:41:20.416Z,54.70
2024-03-07T14:43:48.582Z,54.70
2024-03-07T14:46:18.814Z,54.70
2024-03-07T14:48:49.618Z,54.60
2024-03-07T14:51:17.707Z,54.60
2024-03-07T14:53:46.725Z,54.60
2024-03-07T14:56:14.681Z,54.70
2024-03-07T14:58:42.979Z,54.70
2024-03-07T15:01:11.513Z,54.70
2024-03-07T15:03:40.618Z,54.60
2024-03-07T15:06:10.488Z,54.70
2024-03-07T15:08:42.089Z,54.60
2024-03-07T15:11:18.777Z,54.70
2024-03-07T15:13:47.420Z,54.60
2024-03-07T15:16:25.785Z,54.70
2024-03-07T15:19:01.007Z,54.70
2024-03-07T15:21:30.583Z,54.70
2024-03-07T15:23:58.934Z,54.70
2024-03-07T15:26:27.765Z,54.70
2024-03-07T15:28:56.556Z,54.70
2024-03-07T15:31:24.881Z,54.70
2024-03-07T15:33:53.227Z,54.70
2024-03-07T15:36:22.577Z,54.70
2024-03-07T15:38:52.339Z,54.60
2024-03-07T15:41:20.905Z,54.70
2024-03-07T15:43:49.037Z,54.70
2024-03-07T15:46:19.343Z,54.70
2024-03-07T15:48:49.726Z,54.70
2024-03-07T15:51:18.709Z,54.70
2024-03-07T15:53:47.206Z,54.70
2024-03-07T15:56:16.980Z,54.70
2024-03-07T15:58:46.407Z,54.60
2024-03-07T16:01:17.440Z,54.70
2024-03-07T16:03:47.743Z,54.70
2024-03-07T16:06:17.608Z,54.70
2024-03-07T16:08:46.295Z,54.70
2024-03-07T16:11:15.185Z,54.70
2024-03-07T16:13:45.326Z,54.70
2024-03-07T16:16:14.319Z,54.60
2024-03-07T16:18:44.444Z,54.70
2024-03-07T16:21:12.719Z,54.60
2024-03-07T16:23:42.336Z,54.70
2024-03-07T16:26:10.409Z,54.60
2024-03-07T16:28:38.400Z,54.70
2024-03-07T16:31:10.043Z,54.60
2024-03-07T16:33:38.419Z,54.70
2024-03-07T16:36:07.188Z,54.60
2024-03-07T16:38:35.721Z,54.60
2024-03-07T16:41:03.923Z,54.60
2024-03-07T16:43:31.858Z,54.70
2024-03-07T16:46:00.135Z,54.60
2024-03-07T16:48:29.873Z,54.60
2024-03-07T16:50:58.051Z,54.60
2024-03-07T16:53:26.066Z,54.60
2024-03-07T16:55:55.058Z,54.60
2024-03-07T16:58:23.477Z,54.60
2024-03-07T17:00:53.272Z,54.60
2024-03-07T17:03:21.824Z,54.60
2024-03-07T17:05:52.490Z,54.60
2024-03-07T17:08:22.353Z,54.60
2024-03-07T17:10:52.287Z,54.60
2024-03-07T17:13:20.331Z,54.60
2024-03-07T17:15:48.278Z,54.60
2024-03-07T17:18:17.825Z,54.60
2024-03-07T17:20:47.268Z,54.60
2024-03-07T17:23:18.117Z,54.60
2024-03-07T17:25:47.671Z,54.60
2024-03-07T17:28:17.687Z,54.60
2024-03-07T17:30:45.793Z,54.60
2024-03-07T17:33:13.959Z,54.60
2024-03-07T17:35:43.500Z,54.60
2024-03-07T17:38:12.603Z,54.60
2024-03-07T17:40:44.060Z,54.60
2024-03-07T17:43:12.383Z,54.60
2024-03-07T17:45:40.795Z,54.60
2024-03-07T17:48:11.830Z,54.60
2024-03-07T17:50:41.082Z,54.60
2024-03-07T17:53:11.657Z,54.60
2024-03-07T17:55:45.566Z,54.60
2024-03-07T17:58:15.038Z,54.60
2024-03-07T18:00:46.698Z,54.60
2024-03-07T18:03:17.883Z,54.60
2024-03-07T18:05:51.025Z,54.60
2024-03-07T18:08:34.302Z,54.60
2024-03-07T18:11:14.426Z,54.60
2024-03-07T18:13:43.672Z,54.70
2024-03-07T18:16:15.066Z,54.60
2024-03-07T18:18:43.500Z,54.60
2024-03-07T18:21:13.058Z,54.60
2024-03-07T18:23:41.226Z,54.60
2024-03-07T18:26:10.554Z,54.60
2024-03-07T18:28:38.479Z,54.60
2024-03-07T18:31:15.445Z,54.60
2024-03-07T18:33:44.304Z,54.60
2024-03-07T18:36:13.215Z,54.60
2024-03-07T18:38:41.457Z,54.60
2024-03-07T18:41:13.030Z,54.60
2024-03-07T18:43:42.547Z,54.60
2024-03-07T18:46:10.878Z,54.60
2024-03-07T18:48:41.159Z,54.60
2024-03-07T18:51:10.045Z,54.60
2024-03-07T18:53:38.347Z,54.60
2024-03-07T18:56:11.916Z,54.60
2024-03-07T18:58:46.337Z,54.60
2024-03-07T19:01:14.412Z,54.60
2024-03-07T19:03:42.401Z,54.60
2024-03-07T19:06:11.319Z,54.60
2024-03-07T19:08:39.329Z,54.60
2024-03-07T19:11:08.022Z,54.60
2024-03-07T19:13:37.530Z,54.60
2024-03-07T19:16:10.015Z,54.60
2024-03-07T19:18:38.727Z,54.60
2024-03-07T19:21:11.276Z,54.60
2024-03-07T19:23:45.842Z,54.60
2024-03-07T19:26:16.944Z,54.60
2024-03-07T19:28:48.348Z,54.60
2024-03-07T19:31:17.783Z,54.60
2024-03-07T19:33:45.992Z,54.60
2024-03-07T19:36:15.913Z,54.60
2024-03-07T19:38:46.832Z,54.60
2024-03-07T19:41:15.635Z,54.50
2024-03-07T19:43:44.742Z,54.60
2024-03-07T19:46:14.039Z,54.60
2024-03-07T19:48:44.896Z,54.60
2024-03-07T19:51:13.323Z,54.50
2024-03-07T19:53:41.654Z,54.60
2024-03-07T19:56:10.977Z,54.60
2024-03-07T19:58:39.128Z,54.60
2024-03-07T20:01:12.399Z,54.60
2024-03-07T20:03:40.822Z,54.50
2024-03-07T20:06:11.403Z,54.60
2024-03-07T20:08:39.738Z,54.60
2024-03-07T20:11:08.071Z,54.60
2024-03-07T20:13:37.141Z,54.50
2024-03-07T20:16:08.106Z,54.50
2024-03-07T20:18:38.161Z,54.50
2024-03-07T20:21:06.569Z,54.50
2024-03-07T20:23:36.050Z,54.60
2024-03-07T20:26:05.013Z,54.50
2024-03-07T20:28:33.162Z,54.50
2024-03-07T20:31:01.904Z,54.60
2024-03-07T20:33:30.125Z,54.50
2024-03-07T20:38:30.964Z,54.50
2024-03-07T20:41:00.247Z,54.50
2024-03-07T20:43:28.443Z,54.50
2024-03-07T20:45:57.364Z,54.50
2024-03-07T20:48:25.920Z,54.50
2024-03-07T20:50:54.054Z,54.50
2024-03-07T20:53:22.040Z,54.50
2024-03-07T20:55:49.968Z,54.50
2024-03-07T20:58:19.784Z,54.50
2024-03-07T21:00:48.633Z,54.50
2024-03-07T21:03:23.875Z,54.50
2024-03-07T21:05:52.626Z,54.50
2024-03-07T21:08:20.914Z,54.50
2024-03-07T21:10:49.079Z,54.50
2024-03-07T21:13:21.964Z,54.50
2024-03-07T21:15:51.483Z,54.50
2024-03-07T21:18:20.760Z,54.50
2024-03-07T21:20:49.331Z,54.50
2024-03-07T21:23:18.964Z,54.50
2024-03-07T21:25:47.351Z,54.50
2024-03-07T21:28:15.280Z,54.50
2024-03-07T21:30:43.803Z,54.50
2024-03-07T21:33:13.475Z,54.50
2024-03-07T21:35:42.494Z,54.50
2024-03-07T21:38:12.167Z,54.50
2024-03-07T21:40:40.637Z,54.50
2024-03-07T21:43:08.704Z,54.50
2024-03-07T21:45:38.813Z,54.50
2024-03-07T21:48:09.012Z,54.50
2024-03-07T21:50:38.894Z,54.50
2024-03-07T21:53:07.265Z,54.50
2024-03-07T21:55:35.220Z,54.50
2024-03-07T21:58:03.339Z,54.50
2024-03-07T22:00:32.407Z,54.50
2024-03-07T22:03:02.361Z,54.50
2024-03-07T22:05:32.754Z,54.50
2024-03-07T22:08:04.674Z,54.50
2024-03-07T22:10:33.118Z,54.50
2024-03-07T22:13:01.190Z,54.50
2024-03-07T22:15:29.861Z,54.50
2024-03-07T22:17:58.755Z,54.50
2024-03-07T22:20:27.105Z,54.50
2024-03-07T22:22:55.161Z,54.50
2024-03-07T22:25:26.148Z,54.50
2024-03-07T22:27:55.408Z,54.40
2024-03-07T22:30:24.667Z,54.40
2024-03-07T22:32:54.012Z,54.50
2024-03-07T22:35:22.750Z,54.50
2024-03-07T22:37:53.152Z,54.50
2024-03-07T22:40:27.011Z,54.40
2024-03-07T22:42:55.414Z,54.40
2024-03-07T22:45:24.147Z,54.50
2024-03-07T22:47:54.041Z,54.50
2024-03-07T22:50:28.884Z,54.50
2024-03-07T22:53:00.251Z,54.40
2024-03-07T22:55:30.568Z,54.50
2024-03-07T22:57:58.672Z,54.50
2024-03-07T23:00:28.707Z,54.40
2024-03-07T23:02:59.932Z,54.40
2024-03-07T23:05:30.044Z,54.50
2024-03-07T23:08:00.672Z,54.40
2024-03-07T23:10:30.978Z,54.40
2024-03-07T23:13:02.710Z,54.40
2024-03-07T23:15:31.936Z,54.40
2024-03-07T23:18:01.161Z,54.40
2024-03-07T23:20:30.056Z,54.40
2024-03-07T23:23:00.188Z,54.40
2024-03-07T23:25:30.551Z,54.40
2024-03-07T23:27:59.057Z,54.40
2024-03-07T23:30:28.055Z,54.40
2024-03-07T23:32:57.034Z,54.40
2024-03-07T23:35:25.445Z,54.40
2024-03-07T23:37:53.963Z,54.40
2024-03-07T23:40:22.115Z,54.40
2024-03-07T23:42:52.795Z,54.40
2024-03-07T23:45:21.883Z,54.40
2024-03-07T23:47:50.247Z,54.40
2024-03-07T23:50:18.630Z,54.40
2024-03-07T23:52:47.579Z,54.40
2024-03-07T23:55:18.109Z,54.40
2024-03-07T23:57:47.586Z,54.40
